Terminal Aerodrome Forecast
Issued by NWS Huntsville, AL

Home | Current Version | Previous Version | Text Only | Print | Product List | Glossary On
Versions: 1 2 3 4 5 6 7 8 9 10 11 12
000
FTUS44 KHUN 241720
TAFMSL
TAF
KMSL 241720Z 2418/2518 17005KT P6SM SCT040 SCT250
     FM250000 VRB04KT P6SM SCT140
     FM251500 15005KT P6SM SCT040 SCT250=

USA.gov is the U.S. government's official web portal to all federal, state and local government web resources and services.